sensor_id;sensor_type;location;lat;lon;timestamp;temperature;humidity
16871;DHT22;8552;48.120;-1.456;2024-01-15T00:00:39;2.90;99.90
16871;DHT22;8552;48.120;-1.456;2024-01-15T00:03:04;2.90;99.90
16871;DHT22;8552;48.120;-1.456;2024-01-15T00:05:32;2.90;99.90
16871;DHT22;8552;48.120;-1.456;2024-01-15T00:07:57;2.90;99.90
16871;DHT22;8552;48.120;-1.456;2024-01-15T00:10:23;2.90;99.90
16871;DHT22;8552;48.120;-1.456;2024-01-15T00:12:49;2.90;99.90
16871;DHT22;8552;48.120;-1.456;2024-01-15T00:15:15;3.00;99.90
16871;DHT22;8552;48.120;-1.456;2024-01-15T00:17:40;2.90;99.90
16871;DHT22;8552;48.120;-1.456;2024-01-15T00:20:06;3.00;99.90
16871;DHT22;8552;48.120;-1.456;2024-01-15T00:22:32;3.00;99.90
16871;DHT22;8552;48.120;-1.456;2024-01-15T00:24:58;3.00;99.90
16871;DHT22;8552;48.120;-1.456;2024-01-15T00:27:24;2.90;99.90
16871;DHT22;8552;48.120;-1.456;2024-01-15T00:29:50;3.00;99.90
16871;DHT22;8552;48.120;-1.456;2024-01-15T00:32:19;3.00;99.90
16871;DHT22;8552;48.120;-1.456;2024-01-15T00:34:45;3.00;99.90
16871;DHT22;8552;48.120;-1.456;2024-01-15T00:37:11;3.00;99.90
16871;DHT22;8552;48.120;-1.456;2024-01-15T00:39:37;3.00;99.90
16871;DHT22;8552;48.120;-1.456;2024-01-15T00:42:03;3.00;99.90
16871;DHT22;8552;48.120;-1.456;2024-01-15T00:44:28;3.00;99.90
16871;DHT22;8552;48.120;-1.456;2024-01-15T00:46:54;3.00;99.90
16871;DHT22;8552;48.120;-1.456;2024-01-15T00:49:21;3.00;99.90
16871;DHT22;8552;48.120;-1.456;2024-01-15T00:51:47;3.00;99.90
16871;DHT22;8552;48.120;-1.456;2024-01-15T00:54:13;3.00;99.90
16871;DHT22;8552;48.120;-1.456;2024-01-15T00:56:38;3.00;99.90
16871;DHT22;8552;48.120;-1.456;2024-01-15T00:59:04;3.00;99.90
16871;DHT22;8552;48.120;-1.456;2024-01-15T01:01:30;3.00;99.90
16871;DHT22;8552;48.120;-1.456;2024-01-15T01:03:56;3.00;99.90
16871;DHT22;8552;48.120;-1.456;2024-01-15T01:06:22;3.00;99.90
16871;DHT22;8552;48.120;-1.456;2024-01-15T01:08:47;3.00;99.90
16871;DHT22;8552;48.120;-1.456;2024-01-15T01:11:14;3.00;99.90
16871;DHT22;8552;48.120;-1.456;2024-01-15T01:13:39;3.00;99.90
16871;DHT22;8552;48.120;-1.456;2024-01-15T01:16:05;3.00;99.90
16871;DHT22;8552;48.120;-1.456;2024-01-15T01:18:31;3.00;99.90
16871;DHT22;8552;48.120;-1.456;2024-01-15T01:20:57;3.00;99.90
16871;DHT22;8552;48.120;-1.456;2024-01-15T01:23:22;3.00;99.90
16871;DHT22;8552;48.120;-1.456;2024-01-15T01:25:48;3.00;99.90
16871;DHT22;8552;48.120;-1.456;2024-01-15T01:28:14;3.00;99.90
16871;DHT22;8552;48.120;-1.456;2024-01-15T01:30:39;3.10;99.90
16871;DHT22;8552;48.120;-1.456;2024-01-15T01:33:05;3.00;99.90
16871;DHT22;8552;48.120;-1.456;2024-01-15T01:35:31;3.00;99.90
16871;DHT22;8552;48.120;-1.456;2024-01-15T01:37:56;3.00;99.90
16871;DHT22;8552;48.120;-1.456;2024-01-15T01:40:22;3.00;99.90
16871;DHT22;8552;48.120;-1.456;2024-01-15T01:42:48;3.00;99.90
16871;DHT22;8552;48.120;-1.456;2024-01-15T01:45:14;3.00;99.90
16871;DHT22;8552;48.120;-1.456;2024-01-15T01:47:41;3.10;99.90
16871;DHT22;8552;48.120;-1.456;2024-01-15T01:50:07;3.10;99.90
16871;DHT22;8552;48.120;-1.456;2024-01-15T01:52:33;3.10;99.90
16871;DHT22;8552;48.120;-1.456;2024-01-15T01:55:00;3.10;99.90
16871;DHT22;8552;48.120;-1.456;2024-01-15T01:57:28;3.10;99.90
16871;DHT22;8552;48.120;-1.456;2024-01-15T01:59:54;3.10;99.90
16871;DHT22;8552;48.120;-1.456;2024-01-15T02:02:21;3.10;99.90
16871;DHT22;8552;48.120;-1.456;2024-01-15T02:04:47;3.10;99.90
16871;DHT22;8552;48.120;-1.456;2024-01-15T02:07:14;3.10;99.90
16871;DHT22;8552;48.120;-1.456;2024-01-15T02:09:44;3.10;99.90
16871;DHT22;8552;48.120;-1.456;2024-01-15T02:12:09;3.10;99.90
16871;DHT22;8552;48.120;-1.456;2024-01-15T02:14:35;3.10;99.90
16871;DHT22;8552;48.120;-1.456;2024-01-15T02:17:01;3.10;99.90
16871;DHT22;8552;48.120;-1.456;2024-01-15T02:19:27;3.10;99.90
16871;DHT22;8552;48.120;-1.456;2024-01-15T02:21:52;3.10;99.90
16871;DHT22;8552;48.120;-1.456;2024-01-15T02:24:18;3.20;99.90
16871;DHT22;8552;48.120;-1.456;2024-01-15T02:26:44;3.10;99.90
16871;DHT22;8552;48.120;-1.456;2024-01-15T02:29:10;3.10;99.90
16871;DHT22;8552;48.120;-1.456;2024-01-15T02:31:36;3.10;99.90
16871;DHT22;8552;48.120;-1.456;2024-01-15T02:34:02;3.20;99.90
16871;DHT22;8552;48.120;-1.456;2024-01-15T02:36:28;3.10;99.90
16871;DHT22;8552;48.120;-1.456;2024-01-15T02:38:53;3.20;99.90
16871;DHT22;8552;48.120;-1.456;2024-01-15T02:41:19;3.10;99.90
16871;DHT22;8552;48.120;-1.456;2024-01-15T02:43:45;3.10;99.90
16871;DHT22;8552;48.120;-1.456;2024-01-15T02:46:10;3.10;99.90
16871;DHT22;8552;48.120;-1.456;2024-01-15T02:48:36;3.10;99.90
16871;DHT22;8552;48.120;-1.456;2024-01-15T02:51:02;3.10;99.90
16871;DHT22;8552;48.120;-1.456;2024-01-15T02:53:27;3.20;99.90
16871;DHT22;8552;48.120;-1.456;2024-01-15T02:55:53;3.10;99.90
16871;DHT22;8552;48.120;-1.456;2024-01-15T02:58:19;3.10;99.90
16871;DHT22;8552;48.120;-1.456;2024-01-15T03:00:44;3.20;99.90
16871;DHT22;8552;48.120;-1.456;2024-01-15T03:03:12;3.20;99.90
16871;DHT22;8552;48.120;-1.456;2024-01-15T03:05:37;3.20;99.90
16871;DHT22;8552;48.120;-1.456;2024-01-15T03:08:03;3.10;99.90
16871;DHT22;8552;48.120;-1.456;2024-01-15T03:10:29;3.20;99.90
16871;DHT22;8552;48.120;-1.456;2024-01-15T03:12:55;3.20;99.90
16871;DHT22;8552;48.120;-1.456;2024-01-15T03:15:20;3.20;99.90
16871;DHT22;8552;48.120;-1.456;2024-01-15T03:17:46;3.20;99.90
16871;DHT22;8552;48.120;-1.456;2024-01-15T03:20:12;3.10;99.90
16871;DHT22;8552;48.120;-1.456;2024-01-15T03:22:38;3.20;99.90
16871;DHT22;8552;48.120;-1.456;2024-01-15T03:25:04;3.20;99.90
16871;DHT22;8552;48.120;-1.456;2024-01-15T03:27:30;3.10;99.90
16871;DHT22;8552;48.120;-1.456;2024-01-15T03:29:55;3.20;99.90
16871;DHT22;8552;48.120;-1.456;2024-01-15T03:32:21;3.20;99.90
16871;DHT22;8552;48.120;-1.456;2024-01-15T03:34:47;3.20;99.90
16871;DHT22;8552;48.120;-1.456;2024-01-15T03:37:17;3.20;99.90
16871;DHT22;8552;48.120;-1.456;2024-01-15T03:39:43;3.20;99.90
16871;DHT22;8552;48.120;-1.456;2024-01-15T03:42:09;3.20;99.90
16871;DHT22;8552;48.120;-1.456;2024-01-15T03:44:34;3.20;99.90
16871;DHT22;8552;48.120;-1.456;2024-01-15T03:47:00;3.20;99.90
16871;DHT22;8552;48.120;-1.456;2024-01-15T03:49:26;3.20;99.90
16871;DHT22;8552;48.120;-1.456;2024-01-15T03:51:52;3.20;99.90
16871;DHT22;8552;48.120;-1.456;2024-01-15T03:54:17;3.20;99.90
16871;DHT22;8552;48.120;-1.456;2024-01-15T03:56:43;3.20;99.90
16871;DHT22;8552;48.120;-1.456;2024-01-15T03:59:09;3.10;99.90
16871;DHT22;8552;48.120;-1.456;2024-01-15T04:01:34;3.10;99.90
16871;DHT22;8552;48.120;-1.456;2024-01-15T04:04:00;3.20;99.90
16871;DHT22;8552;48.120;-1.456;2024-01-15T04:06:26;3.20;99.90
16871;DHT22;8552;48.120;-1.456;2024-01-15T04:08:51;3.20;99.90
16871;DHT22;8552;48.120;-1.456;2024-01-15T04:11:17;3.20;99.90
16871;DHT22;8552;48.120;-1.456;2024-01-15T04:13:43;3.20;99.90
16871;DHT22;8552;48.120;-1.456;2024-01-15T04:16:08;3.20;99.90
16871;DHT22;8552;48.120;-1.456;2024-01-15T04:18:34;3.20;99.90
16871;DHT22;8552;48.120;-1.456;2024-01-15T04:21:00;3.20;99.90
16871;DHT22;8552;48.120;-1.456;2024-01-15T04:23:26;3.20;99.90
16871;DHT22;8552;48.120;-1.456;2024-01-15T04:25:51;3.20;99.90
16871;DHT22;8552;48.120;-1.456;2024-01-15T04:28:17;3.20;99.90
16871;DHT22;8552;48.120;-1.456;2024-01-15T04:30:42;3.20;99.90
16871;DHT22;8552;48.120;-1.456;2024-01-15T04:33:08;3.20;99.90
16871;DHT22;8552;48.120;-1.456;2024-01-15T04:35:34;3.20;99.90
16871;DHT22;8552;48.120;-1.456;2024-01-15T04:38:00;3.20;99.90
16871;DHT22;8552;48.120;-1.456;2024-01-15T04:40:25;3.20;99.90
16871;DHT22;8552;48.120;-1.456;2024-01-15T04:42:53;3.20;99.90
16871;DHT22;8552;48.120;-1.456;2024-01-15T04:45:19;3.20;99.90
16871;DHT22;8552;48.120;-1.456;2024-01-15T04:47:48;3.20;99.90
16871;DHT22;8552;48.120;-1.456;2024-01-15T04:50:14;3.20;99.90
16871;DHT22;8552;48.120;-1.456;2024-01-15T04:52:40;3.20;99.90
16871;DHT22;8552;48.120;-1.456;2024-01-15T04:55:05;3.20;99.90
16871;DHT22;8552;48.120;-1.456;2024-01-15T04:57:31;3.20;99.90
16871;DHT22;8552;48.120;-1.456;2024-01-15T04:59:57;3.20;99.90
16871;DHT22;8552;48.120;-1.456;2024-01-15T05:02:23;3.20;99.90
16871;DHT22;8552;48.120;-1.456;2024-01-15T05:04:48;3.20;99.90
16871;DHT22;8552;48.120;-1.456;2024-01-15T05:07:14;3.30;99.90
16871;DHT22;8552;48.120;-1.456;2024-01-15T05:09:40;3.30;99.90
16871;DHT22;8552;48.120;-1.456;2024-01-15T12:09:09;6.40;99.90
16871;DHT22;8552;48.120;-1.456;2024-01-15T12:11:36;6.20;99.90
16871;DHT22;8552;48.120;-1.456;2024-01-15T12:14:03;6.20;99.90
16871;DHT22;8552;48.120;-1.456;2024-01-15T12:16:29;6.40;99.90
16871;DHT22;8552;48.120;-1.456;2024-01-15T12:18:55;6.50;99.90
16871;DHT22;8552;48.120;-1.456;2024-01-15T12:21:22;6.50;99.90
16871;DHT22;8552;48.120;-1.456;2024-01-15T12:23:52;6.50;99.90
16871;DHT22;8552;48.120;-1.456;2024-01-15T12:26:21;6.70;99.90
16871;DHT22;8552;48.120;-1.456;2024-01-15T12:28:51;6.60;99.90
16871;DHT22;8552;48.120;-1.456;2024-01-15T12:31:27;6.80;99.90
16871;DHT22;8552;48.120;-1.456;2024-01-15T12:33:54;6.80;99.90
16871;DHT22;8552;48.120;-1.456;2024-01-15T12:36:25;6.90;99.90
16871;DHT22;8552;48.120;-1.456;2024-01-15T12:38:53;6.90;99.90
16871;DHT22;8552;48.120;-1.456;2024-01-15T12:41:20;7.00;99.90
16871;DHT22;8552;48.120;-1.456;2024-01-15T12:43:47;6.90;99.90
16871;DHT22;8552;48.120;-1.456;2024-01-15T12:46:17;6.90;99.90
16871;DHT22;8552;48.120;-1.456;2024-01-15T12:48:45;6.90;99.90
16871;DHT22;8552;48.120;-1.456;2024-01-15T12:51:10;6.90;99.90
16871;DHT22;8552;48.120;-1.456;2024-01-15T12:53:36;6.90;99.90
16871;DHT22;8552;48.120;-1.456;2024-01-15T12:56:02;6.90;99.90
16871;DHT22;8552;48.120;-1.456;2024-01-15T12:58:28;7.10;99.90
16871;DHT22;8552;48.120;-1.456;2024-01-15T13:00:54;7.00;99.90
16871;DHT22;8552;48.120;-1.456;2024-01-15T13:03:20;7.00;99.90
16871;DHT22;8552;48.120;-1.456;2024-01-15T13:05:47;6.90;99.90
16871;DHT22;8552;48.120;-1.456;2024-01-15T13:08:14;6.90;99.90
16871;DHT22;8552;48.120;-1.456;2024-01-15T13:10:40;7.10;99.90
16871;DHT22;8552;48.120;-1.456;2024-01-15T13:13:07;7.20;99.90
16871;DHT22;8552;48.120;-1.456;2024-01-15T13:15:33;7.20;99.90
16871;DHT22;8552;48.120;-1.456;2024-01-15T13:17:59;7.30;99.90
16871;DHT22;8552;48.120;-1.456;2024-01-15T13:20:24;7.40;99.90
16871;DHT22;8552;48.120;-1.456;2024-01-15T13:22:50;7.40;99.90
16871;DHT22;8552;48.120;-1.456;2024-01-15T13:25:15;7.50;99.90
16871;DHT22;8552;48.120;-1.456;2024-01-15T13:27:41;7.20;99.90
16871;DHT22;8552;48.120;-1.456;2024-01-15T13:30:07;6.80;99.90
16871;DHT22;8552;48.120;-1.456;2024-01-15T13:32:33;6.80;99.90
16871;DHT22;8552;48.120;-1.456;2024-01-15T13:35:00;6.90;99.90
16871;DHT22;8552;48.120;-1.456;2024-01-15T13:37:25;6.90;99.90
16871;DHT22;8552;48.120;-1.456;2024-01-15T13:39:51;6.80;99.90
16871;DHT22;8552;48.120;-1.456;2024-01-15T13:42:18;6.80;99.90
16871;DHT22;8552;48.120;-1.456;2024-01-15T13:44:43;7.00;99.90
16871;DHT22;8552;48.120;-1.456;2024-01-15T13:47:09;7.10;99.90
16871;DHT22;8552;48.120;-1.456;2024-01-15T13:49:35;7.10;99.90
16871;DHT22;8552;48.120;-1.456;2024-01-15T13:52:02;7.20;99.90
16871;DHT22;8552;48.120;-1.456;2024-01-15T13:54:29;7.00;99.90
16871;DHT22;8552;48.120;-1.456;2024-01-15T13:56:55;6.90;99.90
16871;DHT22;8552;48.120;-1.456;2024-01-15T13:59:21;6.80;99.90
16871;DHT22;8552;48.120;-1.456;2024-01-15T14:01:47;6.80;99.90
16871;DHT22;8552;48.120;-1.456;2024-01-15T14:04:13;6.80;99.90
16871;DHT22;8552;48.120;-1.456;2024-01-15T14:06:39;6.70;99.90
16871;DHT22;8552;48.120;-1.456;2024-01-15T14:09:04;6.60;99.90
16871;DHT22;8552;48.120;-1.456;2024-01-15T14:11:31;6.60;99.90
16871;DHT22;8552;48.120;-1.456;2024-01-15T14:13:57;6.60;99.90
16871;DHT22;8552;48.120;-1.456;2024-01-15T14:16:22;6.70;99.90
16871;DHT22;8552;48.120;-1.456;2024-01-15T14:18:48;6.70;99.90
16871;DHT22;8552;48.120;-1.456;2024-01-15T14:21:14;6.70;99.90
16871;DHT22;8552;48.120;-1.456;2024-01-15T14:23:40;6.70;99.90
16871;DHT22;8552;48.120;-1.456;2024-01-15T14:26:06;6.60;99.90
16871;DHT22;8552;48.120;-1.456;2024-01-15T14:28:31;6.50;99.90
16871;DHT22;8552;48.120;-1.456;2024-01-15T14:30:57;6.30;99.90
16871;DHT22;8552;48.120;-1.456;2024-01-15T14:33:26;6.30;99.90
16871;DHT22;8552;48.120;-1.456;2024-01-15T14:35:52;6.20;99.90
16871;DHT22;8552;48.120;-1.456;2024-01-15T14:38:18;6.20;99.90
16871;DHT22;8552;48.120;-1.456;2024-01-15T14:40:44;6.10;99.90
16871;DHT22;8552;48.120;-1.456;2024-01-15T14:43:10;6.20;99.90
16871;DHT22;8552;48.120;-1.456;2024-01-15T14:45:36;6.40;99.90
16871;DHT22;8552;48.120;-1.456;2024-01-15T14:48:02;6.60;99.90
16871;DHT22;8552;48.120;-1.456;2024-01-15T14:50:28;6.80;99.90
16871;DHT22;8552;48.120;-1.456;2024-01-15T14:52:53;6.80;99.90
16871;DHT22;8552;48.120;-1.456;2024-01-15T14:55:19;6.70;99.90
16871;DHT22;8552;48.120;-1.456;2024-01-15T14:57:45;6.40;99.90
16871;DHT22;8552;48.120;-1.456;2024-01-15T15:00:11;6.20;99.90
16871;DHT22;8552;48.120;-1.456;2024-01-15T15:02:38;6.00;99.90
16871;DHT22;8552;48.120;-1.456;2024-01-15T15:05:04;5.90;99.90
16871;DHT22;8552;48.120;-1.456;2024-01-15T15:07:30;5.80;99.90
16871;DHT22;8552;48.120;-1.456;2024-01-15T15:09:56;5.70;99.90
16871;DHT22;8552;48.120;-1.456;2024-01-15T15:12:22;5.60;99.90
16871;DHT22;8552;48.120;-1.456;2024-01-15T15:14:48;5.70;99.90
16871;DHT22;8552;48.120;-1.456;2024-01-15T15:17:30;5.80;99.90
16871;DHT22;8552;48.120;-1.456;2024-01-15T15:19:55;5.90;99.90
16871;DHT22;8552;48.120;-1.456;2024-01-15T15:22:21;5.90;99.90
16871;DHT22;8552;48.120;-1.456;2024-01-15T15:24:47;5.90;99.90
16871;DHT22;8552;48.120;-1.456;2024-01-15T15:27:12;5.90;99.90
16871;DHT22;8552;48.120;-1.456;2024-01-15T15:29:38;6.00;99.90
16871;DHT22;8552;48.120;-1.456;2024-01-15T15:32:04;6.10;99.90
16871;DHT22;8552;48.120;-1.456;2024-01-15T15:34:29;6.10;99.90
16871;DHT22;8552;48.120;-1.456;2024-01-15T15:36:55;6.00;99.90
16871;DHT22;8552;48.120;-1.456;2024-01-15T15:39:21;6.10;99.90
16871;DHT22;8552;48.120;-1.456;2024-01-15T15:41:47;6.00;99.90
16871;DHT22;8552;48.120;-1.456;2024-01-15T15:44:14;5.90;99.90
16871;DHT22;8552;48.120;-1.456;2024-01-15T15:46:42;5.80;99.90
16871;DHT22;8552;48.120;-1.456;2024-01-15T15:49:08;5.80;99.90
16871;DHT22;8552;48.120;-1.456;2024-01-15T15:51:34;5.80;99.90
16871;DHT22;8552;48.120;-1.456;2024-01-15T15:54:01;5.70;99.90
16871;DHT22;8552;48.120;-1.456;2024-01-15T15:56:26;5.70;99.90
16871;DHT22;8552;48.120;-1.456;2024-01-15T15:58:52;5.70;99.90
16871;DHT22;8552;48.120;-1.456;2024-01-15T16:01:18;5.60;99.90
16871;DHT22;8552;48.120;-1.456;2024-01-15T16:03:43;5.50;99.90
16871;DHT22;8552;48.120;-1.456;2024-01-15T16:06:09;5.40;99.90
16871;DHT22;8552;48.120;-1.456;2024-01-15T16:08:35;5.40;99.90
16871;DHT22;8552;48.120;-1.456;2024-01-15T16:11:00;5.30;99.90
16871;DHT22;8552;48.120;-1.456;2024-01-15T16:13:26;5.10;99.90
16871;DHT22;8552;48.120;-1.456;2024-01-15T16:15:52;5.10;99.90
16871;DHT22;8552;48.120;-1.456;2024-01-15T16:18:17;5.00;99.90
16871;DHT22;8552;48.120;-1.456;2024-01-15T16:20:43;4.90;99.90
16871;DHT22;8552;48.120;-1.456;2024-01-15T16:23:09;4.90;99.90
16871;DHT22;8552;48.120;-1.456;2024-01-15T16:25:35;4.80;99.90
16871;DHT22;8552;48.120;-1.456;2024-01-15T16:28:05;4.70;99.90
16871;DHT22;8552;48.120;-1.456;2024-01-15T16:30:30;4.60;99.90
16871;DHT22;8552;48.120;-1.456;2024-01-15T16:32:59;4.50;99.90
16871;DHT22;8552;48.120;-1.456;2024-01-15T16:35:25;4.40;99.90
16871;DHT22;8552;48.120;-1.456;2024-01-15T16:37:50;4.40;99.90
16871;DHT22;8552;48.120;-1.456;2024-01-15T16:40:18;4.30;99.90
16871;DHT22;8552;48.120;-1.456;2024-01-15T16:42:47;4.20;99.90
16871;DHT22;8552;48.120;-1.456;2024-01-15T16:45:17;3.90;99.90
16871;DHT22;8552;48.120;-1.456;2024-01-15T16:47:45;3.80;99.90
16871;DHT22;8552;48.120;-1.456;2024-01-15T16:50:11;3.70;99.90
16871;DHT22;8552;48.120;-1.456;2024-01-15T16:52:36;3.60;99.90
16871;DHT22;8552;48.120;-1.456;2024-01-15T16:55:02;3.50;99.90
16871;DHT22;8552;48.120;-1.456;2024-01-15T16:57:28;3.30;99.90
16871;DHT22;8552;48.120;-1.456;2024-01-15T16:59:54;3.20;99.90
16871;DHT22;8552;48.120;-1.456;2024-01-15T17:02:19;3.10;99.90
16871;DHT22;8552;48.120;-1.456;2024-01-15T17:04:45;3.00;99.90
16871;DHT22;8552;48.120;-1.456;2024-01-15T17:07:11;2.90;99.90
16871;DHT22;8552;48.120;-1.456;2024-01-15T17:09:37;2.90;99.90
16871;DHT22;8552;48.120;-1.456;2024-01-15T17:12:15;2.70;99.90
16871;DHT22;8552;48.120;-1.456;2024-01-15T17:14:41;2.50;99.90
16871;DHT22;8552;48.120;-1.456;2024-01-15T17:17:06;2.50;99.90
16871;DHT22;8552;48.120;-1.456;2024-01-15T17:19:32;2.30;99.90
16871;DHT22;8552;48.120;-1.456;2024-01-15T17:21:58;2.10;99.90
16871;DHT22;8552;48.120;-1.456;2024-01-15T17:24:23;2.00;99.90
16871;DHT22;8552;48.120;-1.456;2024-01-15T17:26:49;1.90;99.90
16871;DHT22;8552;48.120;-1.456;2024-01-15T17:29:15;1.90;99.90
16871;DHT22;8552;48.120;-1.456;2024-01-15T17:31:41;1.80;99.90
16871;DHT22;8552;48.120;-1.456;2024-01-15T17:34:07;1.60;99.90
16871;DHT22;8552;48.120;-1.456;2024-01-15T17:36:33;1.60;99.90
16871;DHT22;8552;48.120;-1.456;2024-01-15T17:38:59;1.50;99.90
16871;DHT22;8552;48.120;-1.456;2024-01-15T17:41:25;1.40;99.90
16871;DHT22;8552;48.120;-1.456;2024-01-15T17:43:50;1.30;99.90
16871;DHT22;8552;48.120;-1.456;2024-01-15T17:46:16;1.20;99.90
16871;DHT22;8552;48.120;-1.456;2024-01-15T17:48:42;1.10;99.90
16871;DHT22;8552;48.120;-1.456;2024-01-15T17:51:08;1.10;99.90
16871;DHT22;8552;48.120;-1.456;2024-01-15T17:53:33;1.00;99.90
16871;DHT22;8552;48.120;-1.456;2024-01-15T17:56:00;0.90;99.90
16871;DHT22;8552;48.120;-1.456;2024-01-15T17:58:26;0.90;99.90
16871;DHT22;8552;48.120;-1.456;2024-01-15T18:00:52;0.80;99.90
16871;DHT22;8552;48.120;-1.456;2024-01-15T18:03:18;0.70;99.90
16871;DHT22;8552;48.120;-1.456;2024-01-15T18:05:43;0.70;99.90
16871;DHT22;8552;48.120;-1.456;2024-01-15T18:08:09;0.70;99.90
16871;DHT22;8552;48.120;-1.456;2024-01-15T18:10:35;0.70;99.90
16871;DHT22;8552;48.120;-1.456;2024-01-15T18:13:00;0.60;99.90
16871;DHT22;8552;48.120;-1.456;2024-01-15T18:15:26;0.60;99.90
16871;DHT22;8552;48.120;-1.456;2024-01-15T18:17:52;0.60;99.90
16871;DHT22;8552;48.120;-1.456;2024-01-15T18:20:18;0.50;99.90
16871;DHT22;8552;48.120;-1.456;2024-01-15T18:22:44;0.40;99.90
16871;DHT22;8552;48.120;-1.456;2024-01-15T18:25:09;0.40;99.90
16871;DHT22;8552;48.120;-1.456;2024-01-15T18:27:35;0.30;99.90
16871;DHT22;8552;48.120;-1.456;2024-01-15T18:30:01;0.30;99.90
16871;DHT22;8552;48.120;-1.456;2024-01-15T18:32:26;0.20;99.90
16871;DHT22;8552;48.120;-1.456;2024-01-15T18:34:52;0.10;99.90
16871;DHT22;8552;48.120;-1.456;2024-01-15T18:37:18;0.10;99.90
16871;DHT22;8552;48.120;-1.456;2024-01-15T18:39:44;0.00;99.90
16871;DHT22;8552;48.120;-1.456;2024-01-15T18:42:10;0.00;99.90
16871;DHT22;8552;48.120;-1.456;2024-01-15T18:44:35;-0.10;99.90
16871;DHT22;8552;48.120;-1.456;2024-01-15T18:47:01;-0.20;99.90
16871;DHT22;8552;48.120;-1.456;2024-01-15T18:49:27;-0.30;99.90
16871;DHT22;8552;48.120;-1.456;2024-01-15T18:51:52;-0.30;99.90
16871;DHT22;8552;48.120;-1.456;2024-01-15T18:54:18;-0.40;99.90
16871;DHT22;8552;48.120;-1.456;2024-01-15T18:56:44;-0.50;99.90
16871;DHT22;8552;48.120;-1.456;2024-01-15T18:59:10;-0.50;99.90
16871;DHT22;8552;48.120;-1.456;2024-01-15T19:01:37;-0.60;99.90
16871;DHT22;8552;48.120;-1.456;2024-01-15T19:04:03;-0.60;99.90
16871;DHT22;8552;48.120;-1.456;2024-01-15T19:06:29;-0.60;99.90
16871;DHT22;8552;48.120;-1.456;2024-01-15T19:08:55;-0.60;99.90
16871;DHT22;8552;48.120;-1.456;2024-01-15T19:11:21;-0.70;99.90
16871;DHT22;8552;48.120;-1.456;2024-01-15T19:13:48;-0.70;99.90
16871;DHT22;8552;48.120;-1.456;2024-01-15T19:16:14;-0.80;99.90
16871;DHT22;8552;48.120;-1.456;2024-01-15T19:18:41;-0.80;99.90
16871;DHT22;8552;48.120;-1.456;2024-01-15T19:21:07;-0.80;99.90
16871;DHT22;8552;48.120;-1.456;2024-01-15T19:23:33;-0.80;99.90
16871;DHT22;8552;48.120;-1.456;2024-01-15T19:25:59;-0.80;99.90
16871;DHT22;8552;48.120;-1.456;2024-01-15T19:28:25;-0.90;99.90
16871;DHT22;8552;48.120;-1.456;2024-01-15T19:30:51;-0.90;99.90
16871;DHT22;8552;48.120;-1.456;2024-01-15T19:33:17;-1.00;99.90
16871;DHT22;8552;48.120;-1.456;2024-01-15T19:35:44;-1.00;99.90
16871;DHT22;8552;48.120;-1.456;2024-01-15T19:38:10;-1.00;99.90
16871;DHT22;8552;48.120;-1.456;2024-01-15T19:40:36;-1.00;99.90
16871;DHT22;8552;48.120;-1.456;2024-01-15T19:43:02;-1.10;99.90
16871;DHT22;8552;48.120;-1.456;2024-01-15T19:45:28;-1.10;99.90
16871;DHT22;8552;48.120;-1.456;2024-01-15T19:47:54;-1.10;99.90
16871;DHT22;8552;48.120;-1.456;2024-01-15T19:50:19;-1.20;99.90
16871;DHT22;8552;48.120;-1.456;2024-01-15T19:52:45;-1.30;99.90
16871;DHT22;8552;48.120;-1.456;2024-01-15T19:55:11;-1.30;99.90
16871;DHT22;8552;48.120;-1.456;2024-01-15T19:57:38;-1.30;99.90
16871;DHT22;8552;48.120;-1.456;2024-01-15T20:00:06;-1.50;99.90
16871;DHT22;8552;48.120;-1.456;2024-01-15T20:02:34;-1.60;99.90
16871;DHT22;8552;48.120;-1.456;2024-01-15T20:05:00;-1.60;99.90
16871;DHT22;8552;48.120;-1.456;2024-01-15T20:07:26;-1.60;99.90
16871;DHT22;8552;48.120;-1.456;2024-01-15T20:09:52;-1.60;99.90
16871;DHT22;8552;48.120;-1.456;2024-01-15T20:12:19;-1.70;99.90
16871;DHT22;8552;48.120;-1.456;2024-01-15T20:14:44;-1.60;99.90
16871;DHT22;8552;48.120;-1.456;2024-01-15T20:17:10;-1.70;99.90
16871;DHT22;8552;48.120;-1.456;2024-01-15T20:19:36;-1.70;99.90
16871;DHT22;8552;48.120;-1.456;2024-01-15T20:22:02;-1.70;99.90
16871;DHT22;8552;48.120;-1.456;2024-01-15T20:24:28;-1.70;99.90
16871;DHT22;8552;48.120;-1.456;2024-01-15T20:26:54;-1.70;99.90
16871;DHT22;8552;48.120;-1.456;2024-01-15T20:29:20;-1.70;99.90
16871;DHT22;8552;48.120;-1.456;2024-01-15T20:31:45;-1.80;99.90
16871;DHT22;8552;48.120;-1.456;2024-01-15T20:34:12;-1.80;99.90
16871;DHT22;8552;48.120;-1.456;2024-01-15T20:36:38;-1.70;99.90
16871;DHT22;8552;48.120;-1.456;2024-01-15T20:39:04;-1.70;99.90
16871;DHT22;8552;48.120;-1.456;2024-01-15T20:41:30;-1.60;99.90
16871;DHT22;8552;48.120;-1.456;2024-01-15T20:43:56;-1.60;99.90
16871;DHT22;8552;48.120;-1.456;2024-01-15T20:46:22;-1.70;99.90
16871;DHT22;8552;48.120;-1.456;2024-01-15T20:48:48;-1.70;99.90
16871;DHT22;8552;48.120;-1.456;2024-01-15T20:51:14;-1.80;99.90
16871;DHT22;8552;48.120;-1.456;2024-01-15T20:53:41;-1.80;99.90
16871;DHT22;8552;48.120;-1.456;2024-01-15T20:56:08;-1.80;99.90
16871;DHT22;8552;48.120;-1.456;2024-01-15T20:58:34;-1.80;99.90
16871;DHT22;8552;48.120;-1.456;2024-01-15T21:00:59;-1.80;99.90
16871;DHT22;8552;48.120;-1.456;2024-01-15T21:03:25;-1.90;99.90
16871;DHT22;8552;48.120;-1.456;2024-01-15T21:05:51;-1.90;99.90
16871;DHT22;8552;48.120;-1.456;2024-01-15T21:08:17;-2.00;99.90
16871;DHT22;8552;48.120;-1.456;2024-01-15T21:10:42;-2.10;99.90
16871;DHT22;8552;48.120;-1.456;2024-01-15T21:13:08;-2.10;99.90
16871;DHT22;8552;48.120;-1.456;2024-01-15T21:15:34;-2.10;99.90
16871;DHT22;8552;48.120;-1.456;2024-01-15T21:18:01;-2.10;99.90
16871;DHT22;8552;48.120;-1.456;2024-01-15T21:20:29;-2.20;99.90
16871;DHT22;8552;48.120;-1.456;2024-01-15T21:22:54;-2.20;99.90
16871;DHT22;8552;48.120;-1.456;2024-01-15T21:25:20;-2.30;99.90
16871;DHT22;8552;48.120;-1.456;2024-01-15T21:27:46;-2.20;99.90
16871;DHT22;8552;48.120;-1.456;2024-01-15T21:30:13;-2.20;99.90
16871;DHT22;8552;48.120;-1.456;2024-01-15T21:32:40;-2.30;99.90
16871;DHT22;8552;48.120;-1.456;2024-01-15T21:35:07;-2.30;99.90
16871;DHT22;8552;48.120;-1.456;2024-01-15T21:37:32;-2.30;99.90
16871;DHT22;8552;48.120;-1.456;2024-01-15T21:39:58;-2.30;99.90
16871;DHT22;8552;48.120;-1.456;2024-01-15T21:42:24;-2.30;99.90
16871;DHT22;8552;48.120;-1.456;2024-01-15T21:44:50;-2.40;99.90
16871;DHT22;8552;48.120;-1.456;2024-01-15T21:47:15;-2.40;99.90
16871;DHT22;8552;48.120;-1.456;2024-01-15T21:49:42;-2.40;99.90
16871;DHT22;8552;48.120;-1.456;2024-01-15T21:52:07;-2.50;99.90
16871;DHT22;8552;48.120;-1.456;2024-01-15T21:54:34;-2.50;99.90
16871;DHT22;8552;48.120;-1.456;2024-01-15T21:57:00;-2.50;99.90
16871;DHT22;8552;48.120;-1.456;2024-01-15T21:59:26;-2.50;99.90
16871;DHT22;8552;48.120;-1.456;2024-01-15T22:01:52;-2.50;99.90
16871;DHT22;8552;48.120;-1.456;2024-01-15T22:04:21;-2.60;99.90
16871;DHT22;8552;48.120;-1.456;2024-01-15T22:06:47;-2.50;99.90
16871;DHT22;8552;48.120;-1.456;2024-01-15T22:09:13;-2.50;99.90
16871;DHT22;8552;48.120;-1.456;2024-01-15T22:11:39;-2.60;99.90
16871;DHT22;8552;48.120;-1.456;2024-01-15T22:14:05;-2.60;99.90
16871;DHT22;8552;48.120;-1.456;2024-01-15T22:16:31;-2.70;99.90
16871;DHT22;8552;48.120;-1.456;2024-01-15T22:18:58;-2.70;99.90
16871;DHT22;8552;48.120;-1.456;2024-01-15T22:21:24;-2.70;99.90
16871;DHT22;8552;48.120;-1.456;2024-01-15T22:23:51;-2.70;99.90
16871;DHT22;8552;48.120;-1.456;2024-01-15T22:26:18;-2.70;99.90
16871;DHT22;8552;48.120;-1.456;2024-01-15T22:28:44;-2.70;99.90
16871;DHT22;8552;48.120;-1.456;2024-01-15T22:31:10;-2.70;99.90